Time;durP1;ratioP1;P1;durP2;ratioP2;P2;SDS_P1;SDS_P2;PMS_P1;PMS_P2;Temp;Humidity;BMP_temperature;BMP_pressure;BME280_temperature;BME280_humidity;BME280_pressure;Samples;Min_cycle;Max_cycle;Signal;HPM_P1;HPM_P2
2023/10/17 00:01:54;;;;;;;5.00;1.73;;;;;;;8.13;71.77;101184.47;5009213;28;20046;-75
2023/10/17 00:06:47;;;;;;;4.05;1.52;;;;;;;7.90;72.65;101177.97;5009244;28;20037;-72
2023/10/17 00:09:21;;;;;;;5.30;1.98;;;;;;;7.74;72.99;101159.06;5008486;28;20468;-70
2023/10/17 00:14:18;;;;;;;6.00;1.83;;;;;;;7.72;73.70;101183.78;5009126;28;20408;-70
2023/10/17 00:16:44;;;;;;;3.33;1.83;;;;;;;7.51;74.70;101175.66;5011770;28;20034;-70
2023/10/17 00:19:09;;;;;;;4.72;1.92;;;;;;;7.31;74.97;101138.50;5007679;28;20184;-72
2023/10/17 00:21:36;;;;;;;4.30;1.80;;;;;;;7.36;76.01;101172.16;5010924;28;20030;-70
2023/10/17 00:24:08;;;;;;;3.00;1.73;;;;;;;7.25;77.35;101180.13;5011301;28;20412;-71
2023/10/17 00:26:38;;;;;;;5.25;1.92;;;;;;;7.41;76.92;101178.47;5009373;28;20026;-68
2023/10/17 00:29:07;;;;;;;;;;;;;;;7.39;76.99;101178.38;5009300;28;20511;-68
2023/10/17 00:31:33;;;;;;;4.97;1.70;;;;;;;7.34;77.31;101172.09;5010321;28;19917;-70
2023/10/17 00:33:59;;;;;;;2.75;1.63;;;;;;;7.38;77.27;101168.03;5010858;28;20405;-70
2023/10/17 00:36:26;;;;;;;4.68;1.90;;;;;;;7.49;76.87;101182.41;5009024;28;20124;-74
2023/10/17 00:38:54;;;;;;;2.45;1.70;;;;;;;7.60;76.63;101183.03;5010088;28;20033;-74
2023/10/17 00:41:32;;;;;;;5.10;1.98;;;;;;;7.77;76.21;101176.34;5011430;28;20032;-74
2023/10/17 00:43:58;;;;;;;3.67;1.70;;;;;;;7.86;75.29;101173.44;5011016;28;20460;-71
2023/10/17 00:46:24;;;;;;;3.80;1.90;;;;;;;7.81;74.98;101165.44;5011394;28;20028;-74
2023/10/17 00:48:50;;;;;;;3.60;1.90;;;;;;;7.87;74.94;101152.94;5011748;28;20030;-69
2023/10/17 00:51:21;;;;;;;4.32;2.15;;;;;;;8.02;74.44;101167.53;5012085;28;20112;-77
2023/10/17 00:53:46;;;;;;;5.35;1.92;;;;;;;8.17;73.50;101168.41;5011367;28;20157;-74
2023/10/17 00:56:13;;;;;;;4.60;1.80;;;;;;;7.94;73.41;101160.25;5010732;28;20542;-73
2023/10/17 00:58:42;;;;;;;8.57;2.33;;;;;;;7.71;74.44;101164.03;5007426;28;20025;-73
2023/10/17 01:01:15;;;;;;;3.55;2.30;;;;;;;7.55;74.80;101149.38;5006728;28;20037;-71
2023/10/17 01:03:43;;;;;;;4.90;2.10;;;;;;;7.57;75.19;101168.31;5009595;28;20034;-71
2023/10/17 01:06:23;;;;;;;5.28;2.10;;;;;;;7.67;75.35;101159.50;5008935;28;20022;-71
2023/10/17 01:08:49;;;;;;;5.28;2.08;;;;;;;7.71;74.63;101158.00;5008258;28;20033;-71
2023/10/17 01:11:20;;;;;;;7.68;2.13;;;;;;;7.73;74.46;101169.25;5006088;28;20518;-72
2023/10/17 01:13:52;;;;;;;6.18;2.33;;;;;;;7.68;74.91;101162.97;5008788;28;20044;-71
2023/10/17 01:16:19;;;;;;;2.47;1.85;;;;;;;7.66;74.47;101146.56;5005505;28;20412;-71
2023/10/17 01:18:45;;;;;;;3.65;1.83;;;;;;;7.26;74.71;101120.25;5008174;28;20030;-72
2023/10/17 01:21:18;;;;;;;5.05;1.63;;;;;;;7.46;74.92;101169.38;5008777;28;20587;-73
2023/10/17 01:23:48;;;;;;;4.63;2.33;;;;;;;7.33;74.85;101142.06;5009317;28;20036;-74
2023/10/17 01:26:14;;;;;;;4.03;1.85;;;;;;;7.51;74.76;101162.81;5008074;28;20041;-72
2023/10/17 01:28:47;;;;;;;4.00;1.80;;;;;;;7.46;74.82;101166.78;5008375;28;20091;-73
2023/10/17 01:31:14;;;;;;;5.85;1.98;;;;;;;7.56;74.43;101170.81;5010413;28;20117;-70
2023/10/17 01:33:43;;;;;;;4.68;1.75;;;;;;;7.19;73.34;101100.13;5010818;28;20496;-69
2023/10/17 01:36:13;;;;;;;3.00;2.00;;;;;;;7.29;73.66;101160.66;5010451;28;20492;-74
2023/10/17 01:38:38;;;;;;;6.05;1.80;;;;;;;7.18;75.04;101161.63;5010683;28;20463;-74
2023/10/17 01:41:05;;;;;;;3.67;1.85;;;;;;;7.32;74.94;101165.09;5009406;28;20025;-75
2023/10/17 01:43:31;;;;;;;8.77;2.15;;;;;;;7.34;74.88;101161.81;5010539;28;20135;-75
2023/10/17 01:45:56;;;;;;;5.38;1.88;;;;;;;7.20;76.15;101166.09;5010313;28;20117;-73
2023/10/17 01:48:24;;;;;;;8.68;2.30;;;;;;;7.42;76.28;101177.69;5010406;28;20034;-72
2023/10/17 01:50:50;;;;;;;6.15;2.05;;;;;;;7.09;76.05;101111.50;5007940;28;20033;-72
2023/10/17 01:53:15;;;;;;;3.88;2.15;;;;;;;7.37;76.88;101179.09;5008341;28;20026;-73
2023/10/17 01:55:45;;;;;;;9.30;2.88;;;;;;;7.41;78.75;101165.63;5010352;28;20042;-74
2023/10/17 01:58:15;;;;;;;11.05;3.85;;;;;;;7.21;80.20;101137.03;5010445;28;20022;-72
2023/10/17 02:00:42;;;;;;;9.85;3.33;;;;;;;7.17;81.67;101103.41;5010538;28;20100;-73
2023/10/17 02:03:08;;;;;;;9.68;3.53;;;;;;;7.17;80.88;101139.34;5008134;28;20022;-74
2023/10/17 02:05:36;;;;;;;12.23;3.45;;;;;;;7.00;81.48;101103.22;5010001;28;20079;-71
2023/10/17 02:08:02;;;;;;;11.50;3.47;;;;;;;7.44;82.21;101155.56;5010223;28;20029;-73
2023/10/17 02:10:30;;;;;;;17.40;3.50;;;;;;;7.43;80.97;101152.09;5009837;28;20535;-71
2023/10/17 02:12:55;;;;;;;9.35;3.08;;;;;;;7.37;80.25;101164.56;5009969;28;20061;-74
2023/10/17 02:15:23;;;;;;;9.05;2.40;;;;;;;7.50;79.13;101170.44;5010006;28;20092;-76
2023/10/17 02:17:51;;;;;;;9.40;3.40;;;;;;;7.53;79.20;101155.22;5010289;28;20026;-73
2023/10/17 02:23:14;;;;;;;13.48;3.10;;;;;;;7.64;77.27;101166.13;4998606;28;20478;-73
2023/10/17 02:25:41;;;;;;;7.78;2.42;;;;;;;7.41;76.70;101160.50;4995186;28;20050;-76
2023/10/17 02:28:07;;;;;;;7.10;2.35;;;;;;;7.31;77.24;101158.16;5003245;28;20099;-70
2023/10/17 02:30:33;;;;;;;5.10;2.00;;;;;;;7.27;75.60;101160.53;4998817;28;20480;-72
2023/10/17 02:33:01;;;;;;;6.70;2.58;;;;;;;6.77;75.79;101143.75;5003141;28;20042;-71
2023/10/17 02:35:44;;;;;;;4.18;2.60;;;;;;;6.79;76.01;101156.69;5002379;28;20553;-70
2023/10/17 02:38:10;;;;;;;2.97;1.80;;;;;;;6.74;75.77;101158.97;4998573;28;20193;-70
2023/10/17 02:40:40;;;;;;;4.53;1.90;;;;;;;6.35;76.57;101121.41;4997211;28;20050;-73
2023/10/17 02:43:05;;;;;;;5.90;2.20;;;;;;;6.26;76.92;101153.34;5003230;28;20260;-70
2023/10/17 02:45:31;;;;;;;5.07;2.20;;;;;;;5.90;77.78;101128.72;4996783;28;20128;-72
2023/10/17 02:47:58;;;;;;;6.10;2.08;;;;;;;6.10;78.09;101166.81;5000326;28;20550;-73
2023/10/17 02:52:59;;;;;;;8.77;2.30;;;;;;;6.28;77.19;101171.38;4997520;28;20046;-70
2023/10/17 02:55:24;;;;;;;5.15;2.05;;;;;;;6.31;76.54;101162.22;4998135;28;20121;-69
2023/10/17 02:57:52;;;;;;;4.30;2.00;;;;;;;6.36;76.27;101172.78;4996398;28;20409;-71
2023/10/17 03:00:22;;;;;;;4.55;2.40;;;;;;;6.19;74.87;101130.63;4989271;28;20042;-72
2023/10/17 03:02:52;;;;;;;3.33;1.83;;;;;;;6.21;75.67;101171.78;5007836;28;20032;-70
2023/10/17 03:05:18;;;;;;;5.80;2.20;;;;;;;5.91;76.50;101177.50;5025582;28;20448;-69
2023/10/17 03:07:49;;;;;;;5.82;2.10;;;;;;;5.80;77.76;101193.81;5012867;28;20036;-71
2023/10/17 03:10:20;;;;;;;5.65;2.15;;;;;;;5.35;79.01;101130.19;5011841;28;20488;-71
2023/10/17 03:12:56;;;;;;;8.70;2.20;;;;;;;5.32;80.90;101168.41;5012578;28;20484;-70
2023/10/17 03:15:23;;;;;;;15.50;2.67;;;;;;;5.23;81.41;101175.44;5012931;28;20022;-72
2023/10/17 03:17:53;;;;;;;4.80;2.28;;;;;;;5.56;80.82;101193.94;5010563;28;20620;-74
2023/10/17 03:20:20;;;;;;;3.90;2.83;;;;;;;5.38;79.50;101151.69;5012643;28;20084;-71
2023/10/17 03:22:46;;;;;;;4.93;2.40;;;;;;;5.40;80.46;101176.59;5009641;28;20087;-70
2023/10/17 03:25:20;;;;;;;6.40;2.25;;;;;;;5.51;80.70;101179.91;5011479;28;20463;-72
2023/10/17 03:27:48;;;;;;;8.63;2.42;;;;;;;5.47;80.98;101176.25;5018507;28;20117;-75
2023/10/17 03:30:19;;;;;;;6.57;3.00;;;;;;;5.33;81.51;101171.84;5013306;28;20026;-70
2023/10/17 03:35:31;;;;;;;4.13;2.30;;;;;;;5.14;82.61;101169.69;5011567;28;20030;-72
2023/10/17 03:37:57;;;;;;;3.80;2.47;;;;;;;5.36;81.48;101164.38;5018343;28;20030;-71
2023/10/17 03:40:40;;;;;;;6.07;2.72;;;;;;;5.39;81.58;101163.72;5013190;28;20033;-71
2023/10/17 03:43:11;;;;;;;7.65;2.65;;;;;;;5.55;81.50;101169.09;5012899;28;20113;-72
2023/10/17 03:45:43;;;;;;;6.65;2.72;;;;;;;5.57;80.37;101149.59;5011923;28;20052;-70
2023/10/17 03:48:20;;;;;;;6.93;2.95;;;;;;;5.63;80.59;101160.28;5021450;28;20108;-73
2023/10/17 03:53:29;;;;;;;5.50;2.80;;;;;;;5.73;80.16;101166.91;5012223;28;20118;-72
2023/10/17 03:56:02;;;;;;;6.68;2.17;;;;;;;5.61;79.32;101115.72;5011420;28;20100;-72
2023/10/17 03:58:48;;;;;;;7.53;2.63;;;;;;;5.81;79.51;101157.16;5012097;28;20057;-72
2023/10/17 04:01:18;;;;;;;11.77;3.70;;;;;;;5.74;78.72;101139.59;5012031;28;20036;-73
2023/10/17 04:03:44;;;;;;;7.90;3.17;;;;;;;5.65;78.92;101156.13;5011375;28;20033;-73
2023/10/17 04:08:41;;;;;;;14.70;3.03;;;;;;;5.71;79.41;101149.63;5013136;28;20048;-72
2023/10/17 04:11:36;;;;;;;9.57;2.90;;;;;;;5.67;80.18;101146.00;5026519;28;20040;-71
2023/10/17 04:14:00;;;;;;;14.40;3.50;;;;;;;5.64;79.88;101146.66;5009914;28;20523;-72
2023/10/17 04:16:34;;;;;;;9.48;3.72;;;;;;;5.24;80.57;101100.41;5008613;28;20410;-72
2023/10/17 04:19:00;;;;;;;6.38;2.42;;;;;;;5.27;80.71;101098.09;5001904;28;20031;-69
2023/10/17 04:21:37;;;;;;;7.65;2.95;;;;;;;5.63;80.25;101157.72;5003905;28;20037;-72
2023/10/17 04:24:06;;;;;;;11.68;3.17;;;;;;;5.52;80.28;101161.22;5011973;28;20556;-70
2023/10/17 04:26:44;;;;;;;9.68;3.55;;;;;;;5.41;80.26;101160.47;5012880;28;20030;-72
2023/10/17 04:29:17;;;;;;;6.50;2.67;;;;;;;4.89;82.43;101139.81;5012522;28;20365;-71
2023/10/17 04:31:43;;;;;;;8.25;3.33;;;;;;;5.04;81.77;101157.03;5006535;28;20571;-71
2023/10/17 04:34:14;;;;;;;9.73;3.10;;;;;;;4.99;81.65;101162.69;5010105;28;20061;-74
2023/10/17 04:36:41;;;;;;;7.32;3.25;;;;;;;4.66;83.56;101159.53;5006261;28;20088;-73
2023/10/17 04:39:13;;;;;;;7.85;3.70;;;;;;;4.53;84.03;101169.63;5011202;28;20118;-71
2023/10/17 04:49:32;;;;;;;6.95;2.97;;;;;;;4.37;83.67;101182.97;4989395;28;20523;-72
2023/10/17 04:52:06;;;;;;;7.30;2.47;;;;;;;4.40;83.59;101177.19;4989922;28;20050;-75
2023/10/17 04:54:41;;;;;;;12.07;2.97;;;;;;;4.29;84.17;101171.31;4989354;28;20513;-71
2023/10/17 04:57:18;;;;;;;9.70;3.08;;;;;;;4.25;84.57;101162.53;4989832;28;20567;-71
2023/10/17 06:16:53;;;;;;;7.70;2.63;;;;;;;7.54;78.42;101205.78;5008277;28;20096;-75
2023/10/17 06:19:22;;;;;;;6.93;3.20;;;;;;;7.45;79.94;101168.50;4994440;28;20045;-74
2023/10/17 06:32:49;;;;;;;6.07;3.38;;;;;;;8.36;75.28;101165.22;4988650;28;20472;-71
2023/10/17 06:35:32;;;;;;;9.48;6.00;;;;;;;8.66;75.13;101201.25;4988444;28;20038;-75
2023/10/17 06:37:59;;;;;;;9.88;4.97;;;;;;;8.86;75.22;101215.22;4990759;28;20088;-76
2023/10/17 06:40:30;;;;;;;14.80;4.88;;;;;;;8.74;76.31;101196.53;4992153;28;20030;-74
2023/10/17 06:42:59;;;;;;;8.63;3.17;;;;;;;8.82;76.27;101214.97;4993813;28;20031;-73
2023/10/17 06:45:25;;;;;;;7.67;2.97;;;;;;;8.96;76.74;101214.06;4997380;28;20040;-75
2023/10/17 06:47:56;;;;;;;4.80;3.30;;;;;;;9.05;77.22;101211.09;5026212;28;20300;-78
2023/10/17 06:53:27;;;;;;;7.85;3.88;;;;;;;9.37;75.03;101211.94;4971505;28;20089;-74
2023/10/17 06:55:58;;;;;;;11.32;3.75;;;;;;;9.61;75.01;101208.91;4971796;28;20086;-79
2023/10/17 06:58:27;;;;;;;6.72;3.00;;;;;;;9.84;74.58;101210.13;4971690;28;20104;-75
2023/10/17 07:00:53;;;;;;;6.50;2.87;;;;;;;10.15;73.58;101197.09;4972332;28;20138;-74
2023/10/17 07:03:26;;;;;;;7.63;3.00;;;;;;;10.42;71.69;101207.06;4970176;28;20294;-75
2023/10/17 07:05:54;;;;;;;8.65;2.78;;;;;;;10.59;71.46;101212.16;4965130;28;20054;-76
2023/10/17 07:08:20;;;;;;;5.93;2.70;;;;;;;10.72;71.08;101204.19;4972061;28;20477;-75
2023/10/17 07:10:59;;;;;;;7.78;2.55;;;;;;;10.84;70.66;101206.47;4972247;28;20105;-73
2023/10/17 07:13:49;;;;;;;8.25;3.00;;;;;;;11.17;69.50;101199.41;4965366;28;20042;-74
2023/10/17 07:16:25;;;;;;;5.90;2.40;;;;;;;10.99;70.12;101198.56;4957896;28;20445;-77
2023/10/17 07:19:09;;;;;;;3.08;2.17;;;;;;;10.98;71.19;101195.09;4954202;28;20047;-75
2023/10/17 07:21:56;;;;;;;5.60;2.35;;;;;;;11.11;70.25;101203.44;4968583;28;20354;-75
2023/10/17 07:24:23;;;;;;;3.65;1.98;;;;;;;11.31;69.66;101194.91;4970603;28;20043;-76
2023/10/17 07:26:52;;;;;;;3.53;1.80;;;;;;;11.56;68.82;101198.56;4970135;28;20100;-77
2023/10/17 07:29:25;;;;;;;3.90;1.98;;;;;;;11.71;66.62;101202.66;4986161;28;20081;-75
2023/10/17 07:31:53;;;;;;;3.42;1.60;;;;;;;11.86;66.52;101181.75;5008592;28;20091;-76
2023/10/17 07:34:22;;;;;;;2.63;1.48;;;;;;;12.04;65.25;101179.13;5009553;28;20125;-76
2023/10/17 07:36:51;;;;;;;3.08;1.70;;;;;;;12.10;65.18;101179.34;4992172;28;20504;-75
2023/10/17 07:39:24;;;;;;;2.97;1.70;;;;;;;12.39;63.03;101185.75;5009360;28;20052;-75
2023/10/17 07:41:54;;;;;;;3.17;1.40;;;;;;;12.49;63.60;101193.91;5010223;28;20050;-74
2023/10/17 07:44:26;;;;;;;;;;;;;;;12.58;61.40;101191.69;5027940;28;20087;-73
2023/10/17 07:47:19;;;;;;;4.68;1.60;;;;;;;12.61;61.91;101184.00;5009954;28;19913;-75
2023/10/17 07:49:47;;;;;;;4.60;2.30;;;;;;;12.68;60.64;101172.22;5013088;28;20014;-77
2023/10/17 07:52:16;;;;;;;3.25;1.42;;;;;;;12.60;58.58;101140.81;5010331;28;20022;-77
2023/10/17 07:54:45;;;;;;;3.40;1.60;;;;;;;12.85;60.00;101172.88;5008383;28;20405;-77
2023/10/17 07:57:23;;;;;;;4.22;1.40;;;;;;;12.91;56.52;101173.09;5012867;28;20424;-76
2023/10/17 07:59:52;;;;;;;2.38;1.23;;;;;;;12.97;56.23;101167.28;5004458;28;20041;-77
2023/10/17 08:02:23;;;;;;;3.20;1.48;;;;;;;12.61;56.44;101104.63;5010527;28;20022;-76
2023/10/17 08:04:49;;;;;;;3.40;1.27;;;;;;;13.05;57.39;101174.50;5023721;28;20034;-78
2023/10/17 08:07:15;;;;;;;1.48;1.00;;;;;;;13.08;55.71;101169.47;5008685;28;20404;-76
2023/10/17 08:09:50;;;;;;;3.22;1.38;;;;;;;13.14;56.58;101157.56;5022398;28;20041;-74
2023/10/17 08:12:21;;;;;;;4.60;1.50;;;;;;;13.18;57.20;101159.44;5005117;28;20469;-73
2023/10/17 08:14:50;;;;;;;4.45;1.50;;;;;;;13.21;55.38;101160.44;5009679;28;20065;-77
2023/10/17 08:17:15;;;;;;;5.65;1.40;;;;;;;13.25;56.16;101162.31;5009243;28;20507;-74
2023/10/17 08:22:53;;;;;;;2.63;1.42;;;;;;;13.34;56.26;101150.50;5010972;28;20049;-78
2023/10/17 08:25:14;;;;;;;4.95;1.30;;;;;;;13.42;55.14;101143.91;5009376;28;20095;-73
2023/10/17 08:30:17;;;;;;;6.85;1.50;;;;;;;13.86;55.30;101134.22;5009651;28;20029;-75
2023/10/17 08:32:55;;;;;;;3.08;1.45;;;;;;;14.01;53.82;101118.28;5006349;28;20476;-77
2023/10/17 08:35:26;;;;;;;3.13;1.27;;;;;;;14.20;52.85;101129.28;5010067;28;20042;-75
2023/10/17 08:37:52;;;;;;;3.55;1.40;;;;;;;14.39;51.61;101130.75;5011944;28;20049;-75
2023/10/17 08:40:32;;;;;;;5.07;1.30;;;;;;;14.47;51.43;101120.63;5026397;28;20057;-79
2023/10/17 08:43:01;;;;;;;;;;;;;;;14.58;52.08;101124.44;5009586;28;20050;-74
2023/10/17 08:45:28;;;;;;;6.30;1.55;;;;;;;14.54;53.33;101127.75;5024799;28;20403;-78
2023/10/17 08:48:00;;;;;;;3.25;1.80;;;;;;;14.52;53.45;101103.44;5012186;28;20038;-74
2023/10/17 08:50:30;;;;;;;7.75;1.95;;;;;;;14.67;52.26;101122.13;5010806;28;20026;-73
2023/10/17 08:52:59;;;;;;;5.20;1.83;;;;;;;14.74;53.06;101106.72;5012267;28;20034;-76
2023/10/17 08:55:27;;;;;;;6.93;2.40;;;;;;;14.82;52.29;101113.03;5027288;28;20061;-75
2023/10/17 08:57:52;;;;;;;5.93;2.00;;;;;;;14.89;52.47;101117.56;5026791;28;20711;-76
2023/10/17 09:00:26;;;;;;;9.07;2.65;;;;;;;15.02;51.75;101114.50;5011923;28;20041;-76
2023/10/17 09:03:02;;;;;;;4.22;1.77;;;;;;;14.96;52.22;101069.25;5011422;28;20496;-77
2023/10/17 09:05:27;;;;;;;6.68;2.13;;;;;;;15.24;52.32;101104.72;5011985;28;20033;-76
2023/10/17 09:07:58;;;;;;;5.32;2.40;;;;;;;15.31;51.44;101097.97;5011800;28;20039;-73
2023/10/17 09:10:35;;;;;;;7.20;1.88;;;;;;;15.31;52.44;101092.75;5011530;28;20476;-74
2023/10/17 09:15:53;;;;;;;7.30;1.85;;;;;;;15.25;53.01;101049.22;5011758;28;20041;-74
2023/10/17 09:18:28;;;;;;;6.85;2.08;;;;;;;15.56;52.03;101089.09;5010021;28;20034;-80
2023/10/17 09:20:57;;;;;;;5.60;1.63;;;;;;;15.46;49.35;101079.28;5010061;28;20041;-74
2023/10/17 09:23:27;;;;;;;4.50;1.70;;;;;;;15.44;49.86;101073.16;5011868;28;20033;-77
2023/10/17 09:26:07;;;;;;;9.38;2.03;;;;;;;15.64;49.15;101074.56;5026088;28;20125;-73
2023/10/17 09:28:33;;;;;;;;;;;;;;;15.72;48.72;101064.34;5011850;28;20072;-74
2023/10/17 09:31:08;;;;;;;8.20;2.03;;;;;;;15.77;48.55;101061.88;5011468;28;19971;-77
2023/10/17 09:33:43;;;;;;;6.03;1.92;;;;;;;15.85;47.65;101049.97;5011190;28;20507;-74
2023/10/17 09:36:09;;;;;;;2.30;1.15;;;;;;;15.94;48.17;101050.19;5011193;28;20029;-76
2023/10/17 09:38:41;;;;;;;7.55;1.65;;;;;;;15.91;50.05;101038.81;5011450;28;20491;-76
2023/10/17 09:41:08;;;;;;;8.55;2.15;;;;;;;15.99;49.87;101045.09;5011308;28;20034;-75
2023/10/17 09:43:37;;;;;;;5.18;1.92;;;;;;;16.08;51.06;101031.41;5009791;28;20093;-77
2023/10/17 09:46:06;;;;;;;6.40;1.77;;;;;;;16.20;49.18;101030.78;5010987;28;20088;-75
2023/10/17 09:48:37;;;;;;;3.92;1.75;;;;;;;16.09;49.60;100986.28;5011453;28;20034;-76
2023/10/17 09:51:04;;;;;;;6.68;1.92;;;;;;;16.33;46.96;101018.06;5009975;28;20107;-73
2023/10/17 09:53:37;;;;;;;4.55;2.08;;;;;;;16.33;47.89;101007.63;5011032;28;20126;-76
2023/10/17 09:56:40;;;;;;;5.15;1.90;;;;;;;16.47;47.09;101009.66;5009486;28;20061;-77
2023/10/17 09:59:11;;;;;;;5.93;1.60;;;;;;;16.55;47.52;100994.19;5008415;28;20200;-75
2023/10/17 10:01:39;;;;;;;7.90;1.92;;;;;;;16.69;46.64;100995.38;5008542;28;20033;-77
2023/10/17 10:04:07;;;;;;;6.53;1.83;;;;;;;16.83;47.42;100977.38;5008185;28;20038;-73
2023/10/17 10:06:36;;;;;;;6.13;1.75;;;;;;;16.95;46.61;100980.25;5008271;28;20044;-75
2023/10/17 10:09:05;;;;;;;5.75;2.50;;;;;;;16.90;44.91;100945.38;5008657;28;20065;-79
2023/10/17 10:11:49;;;;;;;6.20;1.92;;;;;;;17.12;44.76;100962.31;4992005;28;20085;-77
2023/10/17 10:14:42;;;;;;;9.35;1.80;;;;;;;17.22;45.57;100955.53;4991167;28;20029;-76
2023/10/17 10:17:09;;;;;;;7.32;2.13;;;;;;;17.25;46.40;100952.97;5008127;28;20117;-76
2023/10/17 10:19:53;;;;;;;8.98;2.42;;;;;;;17.41;45.01;100953.25;5008346;28;20040;-75
2023/10/17 10:22:18;;;;;;;6.53;2.22;;;;;;;17.49;44.90;100946.41;5007083;28;20045;-76
2023/10/17 10:24:46;;;;;;;6.82;2.00;;;;;;;17.55;44.36;100937.81;5008217;28;20507;-75
2023/10/17 10:27:15;;;;;;;9.82;2.10;;;;;;;17.43;45.43;100930.63;5008009;28;20030;-80
2023/10/17 10:29:54;;;;;;;6.65;2.47;;;;;;;17.38;46.25;100930.56;5008116;28;20065;-78
2023/10/17 10:32:25;;;;;;;4.15;1.80;;;;;;;17.41;45.15;100940.19;5008378;28;20456;-74
2023/10/17 10:34:52;;;;;;;6.03;1.80;;;;;;;17.40;46.58;100931.47;5008314;28;20066;-74
2023/10/17 10:37:20;;;;;;;5.07;1.90;;;;;;;17.32;46.76;100911.31;5010783;28;20026;-73
2023/10/17 10:42:42;;;;;;;6.95;1.92;;;;;;;17.22;45.18;100912.91;5010633;28;20496;-74
2023/10/17 10:45:40;;;;;;;5.50;1.77;;;;;;;17.16;46.55;100898.03;5025821;28;20480;-76
2023/10/17 10:48:17;;;;;;;3.83;1.60;;;;;;;17.25;46.75;100908.63;5025459;28;20565;-78
2023/10/17 10:50:44;;;;;;;5.15;1.77;;;;;;;17.27;47.54;100903.41;5010777;28;20105;-74
2023/10/17 10:53:21;;;;;;;12.63;2.03;;;;;;;17.32;45.84;100904.38;5010548;28;20049;-73
2023/10/17 10:56:01;;;;;;;3.47;1.45;;;;;;;17.41;47.83;100903.66;5007680;28;20133;-75
2023/10/17 10:58:27;;;;;;;;;;;;;;;17.37;46.70;100902.72;5009536;28;20137;-79
2023/10/17 11:00:58;;;;;;;5.93;1.60;;;;;;;17.41;46.59;100899.31;5010071;28;19906;-75
2023/10/17 11:03:24;;;;;;;6.40;1.50;;;;;;;17.48;45.33;100884.59;5010665;28;20052;-73
2023/10/17 11:06:03;;;;;;;5.55;1.70;;;;;;;17.45;44.79;100858.47;5010308;28;20037;-73
2023/10/17 11:08:35;;;;;;;5.22;1.63;;;;;;;17.74;45.80;100871.06;5010503;28;20025;-74
2023/10/17 11:11:03;;;;;;;3.80;1.60;;;;;;;17.73;44.43;100861.47;5025305;28;20026;-75
2023/10/17 11:13:32;;;;;;;6.10;1.67;;;;;;;17.73;46.37;100864.97;5009142;28;20503;-76
2023/10/17 11:15:58;;;;;;;7.25;2.03;;;;;;;17.64;46.11;100862.22;5025520;28;20037;-76
2023/10/17 11:18:24;;;;;;;3.95;1.70;;;;;;;17.68;45.32;100865.75;5026597;28;20349;-80
2023/10/17 11:20:55;;;;;;;6.90;1.65;;;;;;;17.60;45.81;100855.22;5010822;28;20510;-77
2023/10/17 11:23:26;;;;;;;5.68;1.83;;;;;;;17.68;45.09;100840.50;5027354;28;20041;-76
2023/10/17 11:25:53;;;;;;;11.57;2.10;;;;;;;17.66;44.09;100849.19;5026803;28;20061;-74
2023/10/17 11:28:20;;;;;;;4.38;1.75;;;;;;;17.44;44.29;100841.03;5031000;28;20038;-79
2023/10/17 11:30:48;;;;;;;3.80;1.70;;;;;;;17.33;43.42;100801.72;5014529;28;20029;-75
2023/10/17 11:33:16;;;;;;;10.15;1.80;;;;;;;17.68;44.64;100835.28;5030794;28;20128;-75
2023/10/17 11:35:49;;;;;;;4.55;1.70;;;;;;;17.88;45.00;100832.97;5030790;28;20175;-76
2023/10/17 11:38:46;;;;;;;6.38;1.70;;;;;;;17.98;44.95;100818.31;5029856;28;20506;-76
2023/10/17 11:41:17;;;;;;;3.20;1.63;;;;;;;18.11;43.03;100816.72;5030323;28;20132;-73
2023/10/17 11:43:53;;;;;;;5.78;1.42;;;;;;;18.26;43.61;100824.72;5014231;28;20095;-74
2023/10/17 11:46:31;;;;;;;5.80;1.60;;;;;;;18.27;42.06;100809.94;5022495;28;20025;-77
2023/10/17 11:49:22;;;;;;;7.75;1.92;;;;;;;18.25;42.01;100807.28;5005142;28;20045;-77
2023/10/17 11:51:49;;;;;;;9.20;1.92;;;;;;;18.25;41.62;100798.56;4997686;28;20030;-74
2023/10/17 11:54:15;;;;;;;5.80;1.60;;;;;;;18.24;41.91;100797.69;5002428;28;20512;-75
2023/10/17 11:56:40;;;;;;;7.00;1.60;;;;;;;18.31;41.60;100810.84;5002415;28;20022;-76
2023/10/17 11:59:09;;;;;;;4.20;1.55;;;;;;;18.18;41.40;100805.47;5009487;28;20113;-76
2023/10/17 12:01:37;;;;;;;3.58;1.42;;;;;;;18.12;41.59;100800.19;5010067;28;20439;-76
2023/10/17 12:04:06;;;;;;;5.07;1.55;;;;;;;18.14;42.27;100801.06;5008769;28;20046;-76
2023/10/17 12:06:34;;;;;;;5.22;1.73;;;;;;;18.24;43.12;100807.25;5009699;28;20408;-76
2023/10/17 12:09:17;;;;;;;9.77;1.60;;;;;;;18.37;44.14;100810.91;5008601;28;20877;-75
2023/10/17 12:11:46;;;;;;;5.07;1.50;;;;;;;18.39;41.60;100806.53;4992080;28;20033;-75
2023/10/17 12:14:19;;;;;;;3.50;1.30;;;;;;;18.08;42.01;100795.75;5009872;28;20145;-76
2023/10/17 12:16:49;;;;;;;15.45;2.88;;;;;;;18.06;42.75;100797.50;4989606;28;20042;-74
2023/10/17 12:19:17;;;;;;;5.05;1.42;;;;;;;18.13;43.75;100796.72;5008657;28;20128;-74
2023/10/17 12:21:47;;;;;;;6.85;1.80;;;;;;;18.00;41.74;100792.19;4993701;28;20038;-74
2023/10/17 12:24:16;;;;;;;5.25;1.98;;;;;;;17.93;42.44;100793.81;4988912;28;20057;-74
2023/10/17 12:26:45;;;;;;;4.10;1.10;;;;;;;17.98;42.01;100788.69;5007649;28;20162;-77
2023/10/17 12:29:12;;;;;;;6.20;2.17;;;;;;;17.93;42.15;100778.13;5008438;28;20066;-76
2023/10/17 12:31:39;;;;;;;4.75;1.45;;;;;;;17.88;41.89;100792.88;5011486;28;20034;-77
2023/10/17 12:34:07;;;;;;;4.93;1.50;;;;;;;17.74;43.17;100790.97;5018924;28;20045;-73
2023/10/17 12:36:36;;;;;;;3.63;1.30;;;;;;;17.59;43.31;100778.59;5013782;28;20484;-75
2023/10/17 12:39:10;;;;;;;4.43;1.60;;;;;;;17.64;45.73;100781.28;5013063;28;20062;-72
2023/10/17 12:41:36;;;;;;;7.90;1.67;;;;;;;17.57;43.94;100782.94;5020710;28;20543;-74
2023/10/17 12:44:03;;;;;;;4.85;1.30;;;;;;;17.74;45.10;100775.31;5020003;28;20049;-72
2023/10/17 12:46:29;;;;;;;4.78;1.75;;;;;;;17.87;43.73;100768.50;5019598;28;20637;-73
2023/10/17 12:48:54;;;;;;;6.82;1.42;;;;;;;17.95;42.59;100771.25;5002043;28;20030;-74
2023/10/17 12:51:27;;;;;;;11.98;5.28;;;;;;;18.09;43.30;100774.91;4997484;28;20046;-76
2023/10/17 12:53:54;;;;;;;15.18;6.88;;;;;;;17.95;43.64;100745.97;5017542;28;20086;-73
2023/10/17 12:56:21;;;;;;;7.15;2.28;;;;;;;18.19;43.51;100775.84;5004018;28;20044;-76
2023/10/17 12:59:12;;;;;;;5.38;1.80;;;;;;;18.11;43.59;100736.56;5006219;28;20045;-76
2023/10/17 13:01:39;;;;;;;8.05;2.35;;;;;;;18.12;41.70;100708.72;5009540;28;20046;-76
2023/10/17 13:04:07;;;;;;;6.50;1.95;;;;;;;18.46;42.02;100752.59;5020956;28;20479;-74
2023/10/17 13:06:34;;;;;;;7.55;2.03;;;;;;;18.48;41.93;100749.13;5025625;28;20107;-75
2023/10/17 13:09:19;;;;;;;5.97;1.30;;;;;;;18.52;40.60;100747.44;5007987;28;20072;-75
2023/10/17 13:11:44;;;;;;;5.10;1.63;;;;;;;18.48;40.20;100732.56;5005011;28;20512;-76
2023/10/17 13:14:10;;;;;;;14.25;2.50;;;;;;;18.54;41.02;100730.91;5005649;28;20152;-77
2023/10/17 13:16:35;;;;;;;6.43;1.63;;;;;;;18.56;40.66;100734.38;5002585;28;20035;-75
2023/10/17 13:19:06;;;;;;;6.40;1.48;;;;;;;18.59;40.38;100737.03;5001312;28;20034;-78
2023/10/17 13:21:36;;;;;;;6.07;1.55;;;;;;;18.59;40.38;100738.75;5001403;28;20034;-77
2023/10/17 13:24:08;;;;;;;6.28;1.45;;;;;;;18.57;40.86;100737.88;5007042;28;20132;-75
2023/10/17 13:26:37;;;;;;;9.30;3.42;;;;;;;18.56;42.53;100743.97;5007171;28;20069;-74
2023/10/17 13:29:04;;;;;;;7.93;1.88;;;;;;;18.59;41.84;100738.75;4988228;28;20461;-74
2023/10/17 13:31:30;;;;;;;5.68;1.70;;;;;;;18.61;43.29;100733.56;5006420;28;20045;-74
2023/10/17 13:33:55;;;;;;;4.72;1.58;;;;;;;18.59;42.85;100731.81;5005941;28;20180;-73
2023/10/17 13:36:22;;;;;;;7.00;1.27;;;;;;;18.61;40.43;100730.94;5002770;28;20543;-76
2023/10/17 13:38:51;;;;;;;3.42;1.25;;;;;;;18.62;42.28;100735.28;4990252;28;20080;-74
2023/10/17 13:41:16;;;;;;;5.13;1.23;;;;;;;18.42;41.97;100708.13;5005892;28;20053;-77
2023/10/17 13:43:43;;;;;;;7.32;1.77;;;;;;;18.62;42.45;100740.50;5007105;28;20045;-75
2023/10/17 13:46:12;;;;;;;10.32;3.65;;;;;;;18.48;41.45;100741.31;5003550;28;20053;-75
2023/10/17 13:48:38;;;;;;;10.05;2.30;;;;;;;18.42;41.50;100741.25;4988827;28;20149;-72
2023/10/17 13:51:06;;;;;;;18.75;3.17;;;;;;;18.41;41.70;100744.72;4987150;28;20133;-76
2023/10/17 13:53:36;;;;;;;5.30;1.40;;;;;;;18.39;39.64;100729.03;4959411;28;20483;-73